createdAt,value
2022-10-02T00:02:27.392Z,81.06
2022-10-02T00:05:29.861Z,81.23
2022-10-02T00:08:23.284Z,81.09
2022-10-02T00:11:20.848Z,80.77
2022-10-02T00:14:05.408Z,80.90
2022-10-02T00:16:42.509Z,81.18
2022-10-02T00:19:15.764Z,81.03
2022-10-02T00:22:06.399Z,80.90
2022-10-02T00:25:00.294Z,81.18
2022-10-02T00:28:11.802Z,81.13
2022-10-02T00:30:56.133Z,81.25
2022-10-02T00:33:53.805Z,81.39
2022-10-02T00:37:06.751Z,81.25
2022-10-02T00:40:13.412Z,81.29
2022-10-02T00:43:27.682Z,81.14
2022-10-02T00:46:04.558Z,81.52
2022-10-02T00:49:12.368Z,81.44
2022-10-02T00:52:19.354Z,81.58
2022-10-02T00:55:13.276Z,81.59
2022-10-02T00:58:22.178Z,81.60
2022-10-02T01:01:23.027Z,81.31
2022-10-02T01:03:54.658Z,81.99
2022-10-02T01:06:29.197Z,81.71
2022-10-02T01:08:59.530Z,81.91
2022-10-02T01:11:31.329Z,81.98
2022-10-02T01:14:15.491Z,81.87
2022-10-02T01:16:45.939Z,81.94
2022-10-02T01:19:46.551Z,81.75
2022-10-02T01:22:18.159Z,81.79
2022-10-02T01:24:54.864Z,81.95
2022-10-02T01:27:39.428Z,82.04
2022-10-02T01:30:12.866Z,82.35
2022-10-02T01:32:48.110Z,82.26
2022-10-02T01:35:20.497Z,82.44
2022-10-02T01:37:51.643Z,82.18
2022-10-02T01:40:35.083Z,82.22
2022-10-02T01:43:24.514Z,82.23
2022-10-02T01:46:14.241Z,82.19
2022-10-02T01:49:21.725Z,81.99
2022-10-02T01:52:07.708Z,82.13
2022-10-02T01:54:52.146Z,82.42
2022-10-02T01:58:12.864Z,82.33
2022-10-02T02:00:54.282Z,82.17
2022-10-02T02:03:49.150Z,82.54
2022-10-02T02:07:03.391Z,82.72
2022-10-02T02:09:59.650Z,82.45
2022-10-02T02:12:45.840Z,82.27
2022-10-02T02:15:24.147Z,82.60
2022-10-02T02:18:17.740Z,82.63
2022-10-02T02:21:09.425Z,82.56
2022-10-02T02:23:41.129Z,82.47
2022-10-02T02:26:18.983Z,82.95
2022-10-02T02:29:06.626Z,82.98
2022-10-02T02:31:53.131Z,82.38
2022-10-02T02:34:35.968Z,82.87
2022-10-02T02:37:11.904Z,82.83
2022-10-02T02:39:58.219Z,82.59
2022-10-02T02:42:32.715Z,83.30
2022-10-02T02:45:04.383Z,83.34
2022-10-02T02:47:52.612Z,82.77
2022-10-02T02:50:29.686Z,83.14
2022-10-02T02:53:18.306Z,83.17
2022-10-02T02:55:51.372Z,83.25
2022-10-02T02:58:27.844Z,83.46
2022-10-02T03:00:57.480Z,83.55
2022-10-02T03:03:26.708Z,83.27
2022-10-02T03:06:22.572Z,83.32
2022-10-02T03:08:53.385Z,83.33
2022-10-02T03:11:44.248Z,83.51
2022-10-02T03:14:41.875Z,83.62
2022-10-02T03:17:31.092Z,83.77
2022-10-02T03:20:12.073Z,83.53
2022-10-02T03:23:13.573Z,83.36
2022-10-02T03:25:46.950Z,83.66
2022-10-02T03:28:50.502Z,83.86
2022-10-02T03:31:17.685Z,83.70
2022-10-02T03:33:49.389Z,83.91
2022-10-02T03:36:20.893Z,83.97
2022-10-02T03:39:24.263Z,83.54
2022-10-02T03:41:55.113Z,83.85
2022-10-02T03:44:38.299Z,84.24
2022-10-02T03:47:07.474Z,84.30
2022-10-02T03:49:50.721Z,83.91
2022-10-02T03:52:35.911Z,83.94
2022-10-02T03:55:40.023Z,84.40
2022-10-02T03:58:16.339Z,84.49
2022-10-02T04:01:01.572Z,84.00
2022-10-02T04:03:53.639Z,84.44
2022-10-02T04:06:36.391Z,84.25
2022-10-02T04:09:12.994Z,84.41
2022-10-02T04:11:46.701Z,84.54
2022-10-02T04:14:39.975Z,84.40
2022-10-02T04:17:14.570Z,84.58
2022-10-02T04:20:07.628Z,84.37
2022-10-02T04:22:43.127Z,84.66
2022-10-02T04:25:19.224Z,84.65
2022-10-02T04:27:59.776Z,84.58
2022-10-02T04:30:30.386Z,84.52
2022-10-02T04:33:12.973Z,84.54
2022-10-02T04:36:00.852Z,84.50
2022-10-02T04:38:48.014Z,84.27
2022-10-02T04:41:26.536Z,84.37
2022-10-02T04:44:21.508Z,84.69
2022-10-02T04:47:21.457Z,84.66
2022-10-02T04:50:15.082Z,84.46
2022-10-02T04:53:25.702Z,84.79
2022-10-02T04:56:14.944Z,84.78
2022-10-02T04:59:24.671Z,84.67
2022-10-02T05:02:14.219Z,84.87
2022-10-02T05:05:20.008Z,84.49
2022-10-02T05:08:05.478Z,85.17
2022-10-02T05:10:50.266Z,84.82
2022-10-02T05:13:32.783Z,85.02
2022-10-02T05:16:43.078Z,84.99
2022-10-02T05:19:43.025Z,84.86
2022-10-02T05:22:44.821Z,84.68
2022-10-02T05:25:32.594Z,84.91
2022-10-02T05:28:20.065Z,85.14
2022-10-02T05:30:55.835Z,85.11
2022-10-02T05:33:55.626Z,85.22
2022-10-02T05:36:55.687Z,85.18
2022-10-02T05:39:34.588Z,85.14
2022-10-02T05:42:06.463Z,84.98
2022-10-02T05:44:39.943Z,85.34
2022-10-02T05:47:27.380Z,85.09
2022-10-02T05:50:04.200Z,85.03
2022-10-02T05:52:38.494Z,84.86
2022-10-02T05:55:53.865Z,85.11
2022-10-02T05:58:51.141Z,85.10
2022-10-02T06:01:41.988Z,85.04
2022-10-02T06:04:16.943Z,85.02
2022-10-02T06:06:54.556Z,85.20
2022-10-02T06:09:26.691Z,85.43
2022-10-02T06:12:04.064Z,85.32
2022-10-02T06:14:39.851Z,85.34
2022-10-02T06:17:41.613Z,84.87
2022-10-02T06:20:43.266Z,85.35
2022-10-02T06:23:40.934Z,85.26
2022-10-02T06:26:50.302Z,85.26
2022-10-02T06:30:03.322Z,85.20
2022-10-02T06:33:11.227Z,85.30
2022-10-02T06:36:18.296Z,85.33
2022-10-02T06:39:15.454Z,85.04
2022-10-02T06:42:03.132Z,85.24
2022-10-02T06:44:37.656Z,85.17
2022-10-02T06:47:26.153Z,84.99
2022-10-02T06:50:24.117Z,85.10
2022-10-02T06:52:58.371Z,84.81
2022-10-02T06:55:59.814Z,85.13
2022-10-02T06:59:06.111Z,84.90
2022-10-02T07:01:47.576Z,84.80
2022-10-02T07:04:22.573Z,85.02
2022-10-02T07:07:09.655Z,84.72
2022-10-02T07:10:16.180Z,84.78
2022-10-02T07:12:54.435Z,84.66
2022-10-02T07:15:41.546Z,84.70
2022-10-02T07:18:32.367Z,84.43
2022-10-02T07:21:38.947Z,84.64
2022-10-02T07:24:34.007Z,83.85
2022-10-02T07:27:28.681Z,84.27
2022-10-02T07:30:06.043Z,84.06
2022-10-02T07:32:52.504Z,84.24
2022-10-02T07:35:30.535Z,84.23
2022-10-02T07:38:17.934Z,84.07
2022-10-02T07:41:23.388Z,83.84
2022-10-02T07:44:08.482Z,84.05
2022-10-02T07:47:25.886Z,83.90
2022-10-02T07:50:31.152Z,83.77
2022-10-02T07:53:09.037Z,83.63
2022-10-02T07:55:41.928Z,83.12
2022-10-02T07:58:28.294Z,83.10
2022-10-02T08:01:18.597Z,82.65
2022-10-02T08:03:57.091Z,82.99
2022-10-02T08:06:27.133Z,82.64
2022-10-02T08:09:01.355Z,82.86
2022-10-02T08:11:38.206Z,82.49
2022-10-02T08:14:18.474Z,82.58
2022-10-02T08:16:51.610Z,82.61
2022-10-02T08:19:48.936Z,82.44
2022-10-02T08:22:34.175Z,82.47
2022-10-02T08:25:26.145Z,82.18
2022-10-02T08:28:19.621Z,82.31
2022-10-02T08:30:48.496Z,82.46
2022-10-02T08:33:22.864Z,81.91
2022-10-02T08:36:29.633Z,81.79
2022-10-02T08:39:23.397Z,81.02
2022-10-02T08:42:25.163Z,81.30
2022-10-02T08:45:34.525Z,81.53
2022-10-02T08:48:40.824Z,81.39
2022-10-02T08:51:12.354Z,81.90
2022-10-02T08:54:18.517Z,81.26
2022-10-02T08:57:05.725Z,81.67
2022-10-02T09:00:02.859Z,81.74
2022-10-02T09:02:31.856Z,81.28
2022-10-02T09:05:26.354Z,81.21
2022-10-02T09:08:33.581Z,80.26
2022-10-02T09:11:14.587Z,80.67
2022-10-02T09:13:49.950Z,80.65
2022-10-02T09:16:40.003Z,80.52
2022-10-02T09:19:28.246Z,81.07
2022-10-02T09:22:05.659Z,81.49
2022-10-02T09:24:37.663Z,80.74
2022-10-02T09:27:32.094Z,80.32
2022-10-02T09:30:28.357Z,80.08
2022-10-02T09:33:34.566Z,79.95
2022-10-02T09:36:19.399Z,79.59
2022-10-02T09:39:25.522Z,79.22
2022-10-02T09:42:20.383Z,79.08
2022-10-02T09:45:01.376Z,79.14
2022-10-02T09:47:43.460Z,79.10
2022-10-02T09:50:42.488Z,79.46
2022-10-02T09:53:49.337Z,78.37
2022-10-02T09:56:56.027Z,78.97
2022-10-02T09:59:53.888Z,78.71
2022-10-02T10:02:35.879Z,78.16
2022-10-02T10:05:23.321Z,77.27
2022-10-02T10:07:55.443Z,76.58
2022-10-02T10:10:46.579Z,76.68
2022-10-02T10:13:37.556Z,77.09
2022-10-02T10:16:46.087Z,77.84
2022-10-02T10:19:42.124Z,77.49
2022-10-02T10:22:20.128Z,76.85
2022-10-02T10:24:51.914Z,77.49
2022-10-02T10:27:30.443Z,77.71
2022-10-02T10:30:27.982Z,77.62
2022-10-02T10:33:09.253Z,77.59
2022-10-02T10:35:54.264Z,77.09
2022-10-02T10:38:35.429Z,76.95
2022-10-02T10:41:37.606Z,75.51
2022-10-02T10:44:22.766Z,76.57
2022-10-02T10:47:23.648Z,76.67
2022-10-02T10:50:32.300Z,76.19
2022-10-02T10:53:19.511Z,76.27
2022-10-02T10:56:26.645Z,76.02
2022-10-02T10:59:25.586Z,75.88
2022-10-02T11:02:36.519Z,75.95
2022-10-02T11:05:28.668Z,74.92
2022-10-02T11:08:20.159Z,75.35
2022-10-02T11:10:52.332Z,75.64
2022-10-02T11:13:54.689Z,75.84
2022-10-02T11:16:36.310Z,75.56
2022-10-02T11:19:17.967Z,75.59
2022-10-02T11:22:21.679Z,75.03
2022-10-02T11:25:36.105Z,74.74
2022-10-02T11:28:43.141Z,74.25
2022-10-02T11:31:41.185Z,74.33
2022-10-02T11:34:52.709Z,73.71
2022-10-02T11:37:53.865Z,74.11
2022-10-02T11:40:44.629Z,74.26
2022-10-02T11:43:34.956Z,74.28
2022-10-02T11:46:48.873Z,74.34
2022-10-02T11:49:45.865Z,74.45
2022-10-02T11:52:59.915Z,74.27
2022-10-02T11:55:31.659Z,74.72
2022-10-02T11:58:05.128Z,74.22
2022-10-02T12:01:06.106Z,74.41
2022-10-02T12:04:24.684Z,74.26
2022-10-02T12:07:11.008Z,74.10
2022-10-02T12:10:31.177Z,73.87
2022-10-02T12:13:25.589Z,73.78
2022-10-02T12:16:11.580Z,74.14
2022-10-02T12:19:09.039Z,73.71
2022-10-02T12:22:13.008Z,73.76
2022-10-02T12:25:11.213Z,73.14
2022-10-02T12:27:52.483Z,73.34
2022-10-02T12:30:28.505Z,72.77
2022-10-02T12:33:36.662Z,73.57
2022-10-02T12:36:33.709Z,72.76
2022-10-02T12:39:27.100Z,72.85
2022-10-02T12:42:02.086Z,73.09
2022-10-02T12:44:39.648Z,73.12
2022-10-02T12:47:38.642Z,73.23
2022-10-02T12:50:37.303Z,72.81
2022-10-02T12:53:37.585Z,73.31
2022-10-02T12:56:42.480Z,72.87
2022-10-02T12:59:50.183Z,73.12
2022-10-02T13:02:59.735Z,72.96
2022-10-02T13:06:08.200Z,72.71
2022-10-02T13:09:09.124Z,72.66
2022-10-02T13:11:57.019Z,73.14
2022-10-02T13:15:04.547Z,72.50
2022-10-02T13:18:13.690Z,72.76
2022-10-02T13:21:07.650Z,71.86
2022-10-02T13:23:43.123Z,71.53
2022-10-02T13:26:31.232Z,71.44
2022-10-02T13:29:10.298Z,71.79
2022-10-02T13:32:04.602Z,71.69
2022-10-02T13:35:02.657Z,72.26
2022-10-02T13:37:59.525Z,72.17
2022-10-02T13:40:47.449Z,71.58
2022-10-02T13:43:58.407Z,71.29
2022-10-02T13:46:46.097Z,71.71
2022-10-02T13:49:22.224Z,71.46
2022-10-02T13:52:30.305Z,70.44
2022-10-02T13:55:06.630Z,70.81
2022-10-02T13:57:58.024Z,70.95
2022-10-02T14:00:39.336Z,70.81
2022-10-02T14:03:55.926Z,71.37
2022-10-02T14:06:45.513Z,71.58
2022-10-02T14:09:14.892Z,70.70
2022-10-02T14:11:46.221Z,70.55
2022-10-02T14:14:38.478Z,71.11
2022-10-02T14:17:40.051Z,71.01
2022-10-02T14:20:36.102Z,70.62
2022-10-02T14:23:38.487Z,70.63
2022-10-02T14:26:44.970Z,70.72
2022-10-02T14:29:38.803Z,70.29
2022-10-02T14:32:15.301Z,70.51
2022-10-02T14:34:53.459Z,70.59
2022-10-02T14:38:00.974Z,69.89
2022-10-02T14:40:58.652Z,70.34
2022-10-02T14:44:09.021Z,69.94
2022-10-02T14:47:15.408Z,69.11
2022-10-02T14:49:59.806Z,69.35
2022-10-02T14:52:53.619Z,69.62
2022-10-02T14:56:10.779Z,69.51
2022-10-02T14:59:11.590Z,69.21
2022-10-02T15:02:03.614Z,69.74
2022-10-02T15:05:23.554Z,69.67
2022-10-02T15:11:00.346Z,69.60
2022-10-02T15:13:46.073Z,69.72
2022-10-02T15:16:35.670Z,69.95
2022-10-02T15:19:26.192Z,69.60
2022-10-02T15:22:32.145Z,69.83
2022-10-02T15:25:18.189Z,69.87
2022-10-02T15:28:35.635Z,69.75
2022-10-02T15:31:25.687Z,70.24
2022-10-02T15:34:09.569Z,70.31
2022-10-02T15:37:23.770Z,70.23
2022-10-02T15:40:17.252Z,70.37
2022-10-02T15:43:29.153Z,70.51
2022-10-02T15:46:34.766Z,70.49
2022-10-02T15:49:23.379Z,70.68
2022-10-02T15:52:10.949Z,70.68
2022-10-02T15:54:57.109Z,70.71
2022-10-02T15:57:44.999Z,70.77
2022-10-02T16:00:16.717Z,70.95
2022-10-02T16:03:24.671Z,70.92
2022-10-02T16:05:56.191Z,71.04
2022-10-02T16:09:00.394Z,71.04
2022-10-02T16:12:04.060Z,71.17
2022-10-02T16:15:04.729Z,71.24
2022-10-02T16:18:14.475Z,71.30
2022-10-02T16:21:08.344Z,71.26
2022-10-02T16:24:09.499Z,71.41
2022-10-02T16:27:01.870Z,71.55
2022-10-02T16:29:52.892Z,71.70
2022-10-02T16:32:51.958Z,71.73
2022-10-02T16:35:43.872Z,71.63
2022-10-02T16:38:19.421Z,71.86
2022-10-02T16:40:58.869Z,71.83
2022-10-02T16:46:44.573Z,72.03
2022-10-02T16:49:44.599Z,71.89
2022-10-02T16:52:43.603Z,72.18
2022-10-02T16:55:31.425Z,72.07
2022-10-02T17:01:33.988Z,72.36
2022-10-02T17:04:13.423Z,72.72
2022-10-02T17:07:07.437Z,73.07
2022-10-02T17:09:48.662Z,73.48
2022-10-02T17:12:30.602Z,73.40
2022-10-02T17:15:23.491Z,73.35
2022-10-02T17:18:13.891Z,73.74
2022-10-02T17:20:50.073Z,73.76
2022-10-02T17:23:53.984Z,73.73
2022-10-02T17:26:56.503Z,73.73
2022-10-02T17:30:03.917Z,73.97
2022-10-02T17:32:46.205Z,74.12
2022-10-02T17:35:19.528Z,74.28
2022-10-02T17:38:30.166Z,74.07
2022-10-02T17:41:36.960Z,74.24
2022-10-02T17:44:41.876Z,74.14
2022-10-02T17:47:32.707Z,74.26
2022-10-02T17:50:20.948Z,74.26
2022-10-02T17:53:30.125Z,74.30
2022-10-02T17:56:53.075Z,74.59
2022-10-02T17:59:48.828Z,74.43
2022-10-02T18:02:53.320Z,74.92
2022-10-02T18:05:44.070Z,74.70
2022-10-02T18:08:30.458Z,74.54
2022-10-02T18:11:18.227Z,74.47
2022-10-02T18:14:24.616Z,74.59
2022-10-02T18:17:12.756Z,74.72
2022-10-02T18:20:48.243Z,74.92
2022-10-02T18:23:17.263Z,74.99
2022-10-02T18:26:18.102Z,74.99
2022-10-02T18:28:57.838Z,74.96
2022-10-02T18:32:07.938Z,75.23
2022-10-02T18:34:54.774Z,75.13
2022-10-02T18:37:47.861Z,75.33
2022-10-02T18:40:55.059Z,75.31
2022-10-02T18:44:07.563Z,75.20
2022-10-02T18:47:00.099Z,75.39
2022-10-02T18:50:07.604Z,75.34
2022-10-02T18:52:52.186Z,75.52
2022-10-02T18:55:49.918Z,75.76
2022-10-02T18:59:10.125Z,75.72
2022-10-02T19:02:06.055Z,75.73
2022-10-02T19:05:17.325Z,75.95
2022-10-02T19:08:11.843Z,75.64
2022-10-02T19:10:47.318Z,75.98
2022-10-02T19:13:39.745Z,76.01
2022-10-02T19:16:23.202Z,76.13
2022-10-02T19:19:24.603Z,76.46
2022-10-02T19:21:59.233Z,76.12
2022-10-02T19:24:38.371Z,76.39
2022-10-02T19:27:31.298Z,76.55
2022-10-02T19:30:29.068Z,76.52
2022-10-02T19:33:03.323Z,76.50
2022-10-02T19:35:45.197Z,76.53
2022-10-02T19:38:42.187Z,76.56
2022-10-02T19:41:15.718Z,77.04
2022-10-02T19:43:54.822Z,77.03
2022-10-02T19:46:36.162Z,76.96
2022-10-02T19:49:07.169Z,77.09
2022-10-02T19:51:45.877Z,77.27
2022-10-02T19:54:28.158Z,77.34
2022-10-02T19:57:11.918Z,77.46
2022-10-02T19:59:46.708Z,77.63
2022-10-02T20:02:31.501Z,77.61
2022-10-02T20:05:42.393Z,77.93
2022-10-02T20:08:19.699Z,77.91
2022-10-02T20:10:58.292Z,77.84
2022-10-02T20:13:49.974Z,78.22
2022-10-02T20:16:42.668Z,78.07
2022-10-02T20:19:20.026Z,78.02
2022-10-02T20:21:53.155Z,78.30
2022-10-02T20:24:36.207Z,78.42
2022-10-02T20:27:18.126Z,78.37
2022-10-02T20:29:54.178Z,78.50
2022-10-02T20:32:28.942Z,78.46
2022-10-02T20:35:07.596Z,78.84
2022-10-02T20:37:37.402Z,78.82
2022-10-02T20:40:21.947Z,78.85
2022-10-02T20:43:19.996Z,79.06
2022-10-02T20:46:02.954Z,79.14
2022-10-02T20:49:03.483Z,79.46
2022-10-02T20:51:52.838Z,79.22
2022-10-02T20:54:59.942Z,79.35
2022-10-02T20:57:59.510Z,79.57
2022-10-02T21:00:55.998Z,79.73
2022-10-02T21:06:54.981Z,79.77
2022-10-02T21:09:57.888Z,79.71
2022-10-02T21:12:33.223Z,79.90
2022-10-02T21:15:20.778Z,79.73
2022-10-02T21:18:11.294Z,79.81
2022-10-02T21:21:19.622Z,79.99
2022-10-02T21:24:07.272Z,79.85
2022-10-02T21:27:04.573Z,79.84
2022-10-02T21:29:44.360Z,79.85
2022-10-02T21:32:41.245Z,79.90
2022-10-02T21:35:18.185Z,80.19
2022-10-02T21:38:28.349Z,80.03
2022-10-02T21:41:00.499Z,80.14
2022-10-02T21:44:03.594Z,80.47
2022-10-02T21:47:10.569Z,80.29
2022-10-02T21:50:12.686Z,80.49
2022-10-02T21:53:12.567Z,80.53
2022-10-02T21:56:12.986Z,80.59
2022-10-02T21:59:26.788Z,80.60
2022-10-02T22:02:34.063Z,81.00
2022-10-02T22:05:47.736Z,80.99
2022-10-02T22:08:55.428Z,80.97
2022-10-02T22:12:01.351Z,81.00
2022-10-02T22:14:39.652Z,81.45
2022-10-02T22:17:25.405Z,81.41
2022-10-02T22:20:32.102Z,81.62
2022-10-02T22:23:14.832Z,81.48
2022-10-02T22:26:05.503Z,81.57
2022-10-02T22:29:17.941Z,81.97
2022-10-02T22:32:30.524Z,82.07
2022-10-02T22:35:20.032Z,82.30
2022-10-02T22:38:14.822Z,82.30
2022-10-02T22:41:06.970Z,81.99
2022-10-02T22:43:57.447Z,82.06
2022-10-02T22:46:53.463Z,82.06
2022-10-02T22:49:46.173Z,82.13
2022-10-02T22:52:56.555Z,82.00
2022-10-02T22:55:50.651Z,82.19
2022-10-02T22:58:32.283Z,82.26
2022-10-02T23:01:12.176Z,82.34
2022-10-02T23:03:49.864Z,82.24
2022-10-02T23:06:38.093Z,82.20
2022-10-02T23:09:33.618Z,82.18
2022-10-02T23:12:12.605Z,82.35
2022-10-02T23:14:59.766Z,82.48
2022-10-02T23:17:53.936Z,82.43
2022-10-02T23:20:40.001Z,82.54
2022-10-02T23:23:51.652Z,82.84
2022-10-02T23:26:39.570Z,83.26
2022-10-02T23:29:35.663Z,83.33
2022-10-02T23:32:27.513Z,83.44
2022-10-02T23:35:21.275Z,83.63
2022-10-02T23:38:12.135Z,83.45
2022-10-02T23:41:22.590Z,83.91
2022-10-02T23:44:13.129Z,84.03
2022-10-02T23:47:21.503Z,83.96
2022-10-02T23:49:59.710Z,83.96
2022-10-02T23:52:41.357Z,83.60
2022-10-02T23:55:23.380Z,83.89
2022-10-02T23:58:13.714Z,83.86
